sensor_id;sensor_type;location;lat;lon;timestamp;pressure;altitude;pressure_sealevel;temperature;humidity
69593;BME280;56796;50.122;14.468;2023-02-28T00:09:33;990.8;;;-0.95;84.57
69593;BME280;56796;50.122;14.468;2023-02-28T00:28:59;990.82;;;-1.04;84.86
69593;BME280;56796;50.122;14.468;2023-02-28T00:48:24;990.81;;;-1.05;85.14
69593;BME280;56796;50.122;14.468;2023-02-28T01:07:50;990.74;;;-1.1;85.81
69593;BME280;56796;50.122;14.468;2023-02-28T01:27:16;990.71;;;-1.13;86.05
69593;BME280;56796;50.122;14.468;2023-02-28T01:46:41;990.74;;;-1.05;85.41
69593;BME280;56796;50.122;14.468;2023-02-28T02:06:07;990.6;;;-1.15;84.62
69593;BME280;56796;50.122;14.468;2023-02-28T02:25:32;990.48;;;-1.41;84.48
69593;BME280;56796;50.122;14.468;2023-02-28T02:44:57;990.55;;;-1.45;84.29
69593;BME280;56796;50.122;14.468;2023-02-28T03:04:23;990.59;;;-1.53;83.19
69593;BME280;56796;50.122;14.468;2023-02-28T03:23:48;990.65;;;-1.81;82.8
69593;BME280;56796;50.122;14.468;2023-02-28T03:43:15;990.62;;;-2.05;82.86
69593;BME280;56796;50.122;14.468;2023-02-28T04:02:38;990.59;;;-2.24;83.33
69593;BME280;56796;50.122;14.468;2023-02-28T04:22:03;990.66;;;-2.4;83.77
69593;BME280;56796;50.122;14.468;2023-02-28T04:41:28;990.77;;;-2.56;84.57
69593;BME280;56796;50.122;14.468;2023-02-28T05:01:01;990.75;;;-2.77;85.35
69593;BME280;56796;50.122;14.468;2023-02-28T05:20:14;990.89;;;-2.86;85.9
69593;BME280;56796;50.122;14.468;2023-02-28T05:39:40;991.09;;;-2.92;85.99
69593;BME280;56796;50.122;14.468;2023-02-28T05:59:05;991.24;;;-2.98;86.23
69593;BME280;56796;50.122;14.468;2023-02-28T06:18:31;991.33;;;-2.26;83.64
69593;BME280;56796;50.122;14.468;2023-02-28T06:38:00;991.54;;;-0.93;78.92
69593;BME280;56796;50.122;14.468;2023-02-28T06:57:30;991.73;;;0.23;73.19
69593;BME280;56796;50.122;14.468;2023-02-28T07:17:00;991.71;;;0.94;68.88
69593;BME280;56796;50.122;14.468;2023-02-28T07:36:31;991.8;;;2.84;63.35
69593;BME280;56796;50.122;14.468;2023-02-28T07:56:03;991.93;;;2.88;61.74
69593;BME280;56796;50.122;14.468;2023-02-28T08:15:32;991.83;;;3.52;58.89
69593;BME280;56796;50.122;14.468;2023-02-28T08:35:01;991.94;;;4.1;57.11
69593;BME280;56796;50.122;14.468;2023-02-28T08:54:31;991.89;;;4.59;55.91
69593;BME280;56796;50.122;14.468;2023-02-28T09:14:03;991.78;;;5.29;53.66
69593;BME280;56796;50.122;14.468;2023-02-28T09:33:31;991.78;;;6.09;50.08
69593;BME280;56796;50.122;14.468;2023-02-28T09:53:01;991.83;;;6.31;47.41
69593;BME280;56796;50.122;14.468;2023-02-28T10:12:27;991.9;;;7.06;46.7
69593;BME280;56796;50.122;14.468;2023-02-28T10:31:57;991.82;;;7.5;45.49
69593;BME280;56796;50.122;14.468;2023-02-28T10:51:25;991.72;;;6.78;46.33
69593;BME280;56796;50.122;14.468;2023-02-28T11:10:54;991.64;;;7.79;44.9
69593;BME280;56796;50.122;14.468;2023-02-28T11:49:47;991.22;;;8.64;43.61
69593;BME280;56796;50.122;14.468;2023-02-28T12:09:20;991.19;;;7.78;43.97
69593;BME280;56796;50.122;14.468;2023-02-28T12:28:37;991.09;;;7.95;42.99
69593;BME280;56796;50.122;14.468;2023-02-28T12:48:02;990.98;;;7.89;43.45
69593;BME280;56796;50.122;14.468;2023-02-28T13:07:31;990.83;;;8.75;42.58
69593;BME280;56796;50.122;14.468;2023-02-28T13:46:14;990.72;;;7.79;43.99
69593;BME280;56796;50.122;14.468;2023-02-28T14:05:37;990.64;;;8.18;43.97
69593;BME280;56796;50.122;14.468;2023-02-28T14:25:07;990.66;;;7.06;45.76
69593;BME280;56796;50.122;14.468;2023-02-28T14:44:19;990.47;;;6.78;46.7
69593;BME280;56796;50.122;14.468;2023-02-28T15:03:41;990.46;;;6.47;47.96
69593;BME280;56796;50.122;14.468;2023-02-28T15:23:07;990.51;;;5.67;49.57
69593;BME280;56796;50.122;14.468;2023-02-28T15:42:21;990.47;;;5.07;50.81
69593;BME280;56796;50.122;14.468;2023-02-28T16:01:43;990.51;;;3.7;53.98
69593;BME280;56796;50.122;14.468;2023-02-28T16:21:04;990.66;;;3;56.66
69593;BME280;56796;50.122;14.468;2023-02-28T16:40:29;990.7;;;2.47;58.66
69593;BME280;56796;50.122;14.468;2023-02-28T16:59:44;990.94;;;2.1;59.65
69593;BME280;56796;50.122;14.468;2023-02-28T17:19:09;990.92;;;1.83;60.7
69593;BME280;56796;50.122;14.468;2023-02-28T17:38:31;991.07;;;1.68;61.31
69593;BME280;56796;50.122;14.468;2023-02-28T17:57:57;991.04;;;1.4;62.54
69593;BME280;56796;50.122;14.468;2023-02-28T18:17:21;991.09;;;1.1;63.61
69593;BME280;56796;50.122;14.468;2023-02-28T18:36:46;991.04;;;0.99;64.23
69593;BME280;56796;50.122;14.468;2023-02-28T18:56:12;991.08;;;0.76;65.78
69593;BME280;56796;50.122;14.468;2023-02-28T19:15:36;991.07;;;0.47;67.63
69593;BME280;56796;50.122;14.468;2023-02-28T19:35:01;990.9;;;0.39;68.81
69593;BME280;56796;50.122;14.468;2023-02-28T19:54:26;990.9;;;0.26;69.8
69593;BME280;56796;50.122;14.468;2023-02-28T20:13:52;991.08;;;0.19;70.99
69593;BME280;56796;50.122;14.468;2023-02-28T20:33:18;991.13;;;-0.04;71.85
69593;BME280;56796;50.122;14.468;2023-02-28T20:52:42;991.12;;;-0.3;72.65
69593;BME280;56796;50.122;14.468;2023-02-28T21:12:07;991.12;;;-0.39;73.1
69593;BME280;56796;50.122;14.468;2023-02-28T21:31:33;991.19;;;-0.58;73.85
69593;BME280;56796;50.122;14.468;2023-02-28T21:50:58;991.16;;;-0.61;74.17
69593;BME280;56796;50.122;14.468;2023-02-28T22:10:23;991.13;;;-0.58;74.17
69593;BME280;56796;50.122;14.468;2023-02-28T22:29:49;991.3;;;-0.67;74.36
69593;BME280;56796;50.122;14.468;2023-02-28T22:49:14;991.24;;;-0.77;75.41
69593;BME280;56796;50.122;14.468;2023-02-28T23:08:39;991.32;;;-0.79;75.61
69593;BME280;56796;50.122;14.468;2023-02-28T23:28:04;991.27;;;-0.9;75.88
69593;BME280;56796;50.122;14.468;2023-02-28T23:47:30;991.24;;;-1.11;76.87
